createdAt,value
2022-10-04T00:01:58.588Z,14.50
2022-10-04T00:04:54.817Z,14.50
2022-10-04T00:07:28.050Z,14.40
2022-10-04T00:10:17.349Z,14.40
2022-10-04T00:13:00.243Z,14.40
2022-10-04T00:15:37.392Z,14.40
2022-10-04T00:18:31.840Z,14.40
2022-10-04T00:21:06.179Z,14.40
2022-10-04T00:23:39.252Z,14.40
2022-10-04T00:26:24.532Z,14.30
2022-10-04T00:28:52.879Z,14.30
2022-10-04T00:31:27.123Z,14.30
2022-10-04T00:34:09.467Z,14.30
2022-10-04T00:36:59.983Z,14.30
2022-10-04T00:39:40.932Z,14.30
2022-10-04T00:42:44.816Z,14.30
2022-10-04T00:45:24.808Z,14.30
2022-10-04T00:48:16.752Z,14.30
2022-10-04T00:51:32.613Z,14.20
2022-10-04T00:54:15.060Z,14.20
2022-10-04T00:56:52.726Z,14.20
2022-10-04T00:59:44.794Z,14.20
2022-10-04T01:02:20.440Z,14.20
2022-10-04T01:05:10.865Z,14.20
2022-10-04T01:07:48.480Z,14.20
2022-10-04T01:10:27.460Z,14.20
2022-10-04T01:13:01.737Z,14.20
2022-10-04T01:15:53.793Z,14.20
2022-10-04T01:18:20.836Z,14.20
2022-10-04T01:20:58.861Z,14.20
2022-10-04T01:23:46.915Z,14.20
2022-10-04T01:26:32.570Z,14.20
2022-10-04T01:29:24.513Z,14.20
2022-10-04T01:31:55.724Z,14.20
2022-10-04T01:34:27.559Z,14.20
2022-10-04T01:37:00.718Z,14.10
2022-10-04T01:39:29.201Z,14.10
2022-10-04T01:42:30.080Z,14.10
2022-10-04T01:45:10.948Z,14.00
2022-10-04T01:48:12.903Z,14.00
2022-10-04T01:50:51.568Z,13.90
2022-10-04T01:53:29.410Z,13.90
2022-10-04T01:56:20.147Z,13.90
2022-10-04T01:59:04.351Z,13.90
2022-10-04T02:02:00.220Z,13.90
2022-10-04T02:04:39.800Z,13.90
2022-10-04T02:07:15.936Z,13.90
2022-10-04T02:09:50.088Z,13.90
2022-10-04T02:12:20.050Z,13.90
2022-10-04T02:14:53.490Z,13.90
2022-10-04T02:17:29.935Z,13.90
2022-10-04T02:19:59.880Z,13.90
2022-10-04T02:22:27.703Z,13.90
2022-10-04T02:24:57.953Z,14.00
2022-10-04T02:27:31.414Z,14.00
2022-10-04T02:30:05.698Z,14.00
2022-10-04T02:32:52.416Z,14.00
2022-10-04T02:35:20.929Z,14.00
2022-10-04T02:38:01.797Z,14.10
2022-10-04T02:40:39.550Z,14.10
2022-10-04T02:43:43.714Z,14.10
2022-10-04T02:46:20.502Z,14.10
2022-10-04T02:49:17.209Z,14.10
2022-10-04T02:51:54.484Z,14.10
2022-10-04T02:55:21.440Z,14.10
2022-10-04T02:57:52.471Z,14.10
2022-10-04T03:00:24.795Z,14.00
2022-10-04T03:03:34.913Z,14.00
2022-10-04T03:06:08.914Z,13.90
2022-10-04T03:08:51.680Z,13.90
2022-10-04T03:11:22.832Z,13.80
2022-10-04T03:13:56.428Z,13.80
2022-10-04T03:16:25.185Z,13.80
2022-10-04T03:18:57.438Z,13.70
2022-10-04T03:21:26.317Z,13.70
2022-10-04T03:23:54.717Z,13.70
2022-10-04T03:26:49.337Z,13.60
2022-10-04T03:29:19.365Z,13.70
2022-10-04T03:31:51.600Z,13.60
2022-10-04T03:34:35.842Z,13.60
2022-10-04T03:37:08.273Z,13.60
2022-10-04T03:39:42.783Z,13.50
2022-10-04T03:42:24.585Z,13.50
2022-10-04T03:44:59.457Z,13.50
2022-10-04T03:47:39.528Z,13.40
2022-10-04T03:50:32.807Z,13.40
2022-10-04T03:53:43.271Z,13.40
2022-10-04T03:56:17.592Z,13.30
2022-10-04T03:58:46.905Z,13.30
2022-10-04T04:01:29.229Z,13.30
2022-10-04T04:04:23.653Z,13.30
2022-10-04T04:07:04.059Z,13.30
2022-10-04T04:10:07.170Z,13.30
2022-10-04T04:13:18.564Z,13.30
2022-10-04T04:15:48.004Z,13.30
2022-10-04T04:18:25.663Z,13.20
2022-10-04T04:20:59.590Z,13.20
2022-10-04T04:23:40.129Z,13.20
2022-10-04T04:26:28.362Z,13.10
2022-10-04T04:29:22.530Z,13.10
2022-10-04T04:32:04.732Z,13.10
2022-10-04T04:34:45.042Z,13.10
2022-10-04T04:37:12.144Z,13.10
2022-10-04T04:39:43.934Z,13.00
2022-10-04T04:42:11.053Z,13.00
2022-10-04T04:45:05.250Z,13.00
2022-10-04T04:47:50.680Z,13.00
2022-10-04T04:50:22.681Z,12.90
2022-10-04T04:53:16.499Z,12.90
2022-10-04T04:56:04.541Z,12.90
2022-10-04T04:58:41.713Z,12.80
2022-10-04T05:01:28.421Z,12.80
2022-10-04T05:04:12.732Z,12.80
2022-10-04T05:07:10.153Z,12.70
2022-10-04T05:09:38.919Z,12.70
2022-10-04T05:12:29.167Z,12.70
2022-10-04T05:15:03.737Z,12.60
2022-10-04T05:17:35.360Z,12.60
2022-10-04T05:20:04.673Z,12.50
2022-10-04T05:22:33.501Z,12.50
2022-10-04T05:25:25.722Z,12.50
2022-10-04T05:27:56.077Z,12.50
2022-10-04T05:31:11.366Z,12.50
2022-10-04T05:33:50.397Z,12.40
2022-10-04T05:36:55.750Z,12.40
2022-10-04T05:39:38.051Z,12.30
2022-10-04T05:42:30.249Z,12.30
2022-10-04T05:44:58.663Z,12.30
2022-10-04T05:47:31.809Z,12.30
2022-10-04T05:50:55.311Z,12.20
2022-10-04T05:53:33.609Z,12.20
2022-10-04T05:56:51.359Z,12.20
2022-10-04T05:59:37.773Z,12.10
2022-10-04T06:02:44.886Z,12.10
2022-10-04T06:05:29.342Z,12.10
2022-10-04T06:08:30.595Z,12.10
2022-10-04T06:11:33.176Z,12.10
2022-10-04T06:14:27.419Z,12.10
2022-10-04T06:17:19.192Z,12.10
2022-10-04T06:20:10.688Z,12.10
2022-10-04T06:22:53.048Z,12.10
2022-10-04T06:25:29.776Z,12.20
2022-10-04T06:28:20.101Z,12.20
2022-10-04T06:31:08.672Z,12.20
2022-10-04T06:34:53.912Z,12.30
2022-10-04T06:37:53.842Z,12.40
2022-10-04T06:40:49.909Z,12.50
2022-10-04T06:43:30.048Z,12.50
2022-10-04T06:46:20.178Z,12.60
2022-10-04T06:49:07.390Z,12.60
2022-10-04T06:51:46.226Z,12.70
2022-10-04T06:54:13.457Z,12.70
2022-10-04T06:57:23.151Z,12.80
2022-10-04T07:00:09.860Z,12.90
2022-10-04T07:02:54.729Z,13.00
2022-10-04T07:05:46.074Z,13.00
2022-10-04T07:08:34.270Z,13.10
2022-10-04T07:11:27.557Z,13.10
2022-10-04T07:14:03.958Z,13.20
2022-10-04T07:16:48.625Z,13.30
2022-10-04T07:19:45.215Z,13.30
2022-10-04T07:22:47.902Z,13.40
2022-10-04T07:25:34.704Z,13.50
2022-10-04T07:28:35.272Z,13.60
2022-10-04T07:31:13.499Z,13.70
2022-10-04T07:33:58.443Z,13.80
2022-10-04T07:36:46.573Z,13.90
2022-10-04T07:39:33.862Z,13.90
2022-10-04T07:42:22.894Z,14.00
2022-10-04T07:45:40.085Z,14.10
2022-10-04T07:48:16.745Z,14.20
2022-10-04T07:51:04.232Z,14.30
2022-10-04T07:53:53.078Z,14.40
2022-10-04T07:56:51.637Z,14.40
2022-10-04T07:59:50.781Z,14.40
2022-10-04T08:02:45.135Z,14.50
2022-10-04T08:05:28.678Z,14.50
2022-10-04T08:08:17.533Z,14.50
2022-10-04T08:11:05.494Z,14.60
2022-10-04T08:13:52.835Z,14.60
2022-10-04T08:16:43.979Z,14.70
2022-10-04T08:19:45.401Z,14.70
2022-10-04T08:22:24.194Z,14.80
2022-10-04T08:25:57.160Z,14.80
2022-10-04T08:29:38.910Z,14.90
2022-10-04T08:33:06.592Z,15.00
2022-10-04T08:35:43.353Z,15.10
2022-10-04T08:38:52.608Z,15.20
2022-10-04T08:42:04.925Z,15.20
2022-10-04T08:44:43.107Z,15.30
2022-10-04T08:48:08.412Z,15.40
2022-10-04T08:50:59.917Z,15.50
2022-10-04T08:53:48.997Z,15.60
2022-10-04T08:56:24.577Z,15.70
2022-10-04T08:59:46.777Z,15.80
2022-10-04T09:02:37.841Z,15.90
2022-10-04T09:05:42.987Z,16.10
2022-10-04T09:08:34.856Z,16.20
2022-10-04T09:11:58.748Z,16.30
2022-10-04T09:14:43.882Z,16.50
2022-10-04T09:17:41.182Z,16.60
2022-10-04T09:20:39.605Z,16.70
2022-10-04T09:23:31.138Z,16.80
2022-10-04T09:26:33.251Z,16.90
2022-10-04T09:29:14.564Z,17.00
2022-10-04T09:31:56.582Z,17.00
2022-10-04T09:34:38.934Z,17.10
2022-10-04T09:38:02.984Z,17.30
2022-10-04T09:41:02.340Z,17.40
2022-10-04T09:44:08.671Z,17.70
2022-10-04T09:47:42.882Z,18.10
2022-10-04T09:50:26.441Z,18.50
2022-10-04T09:53:09.041Z,19.10
2022-10-04T09:55:59.200Z,19.50
2022-10-04T09:59:22.304Z,19.90
2022-10-04T10:01:58.377Z,20.40
2022-10-04T10:05:22.419Z,20.90
2022-10-04T10:08:18.236Z,21.30
2022-10-04T10:11:17.029Z,21.70
2022-10-04T10:14:27.589Z,22.00
2022-10-04T10:17:38.098Z,22.40
2022-10-04T10:20:23.368Z,22.70
2022-10-04T10:23:27.313Z,23.00
2022-10-04T10:26:25.080Z,23.30
2022-10-04T10:29:06.222Z,23.60
2022-10-04T10:32:09.404Z,23.80
2022-10-04T10:34:45.587Z,24.00
2022-10-04T10:37:46.697Z,24.20
2022-10-04T10:40:51.711Z,24.40
2022-10-04T10:43:41.737Z,24.50
2022-10-04T10:46:32.990Z,24.60
2022-10-04T10:49:30.814Z,24.70
2022-10-04T10:52:22.911Z,24.90
2022-10-04T10:55:22.919Z,25.00
2022-10-04T10:58:22.737Z,25.00
2022-10-04T11:01:12.941Z,25.10
2022-10-04T11:04:14.530Z,25.20
2022-10-04T11:07:28.344Z,25.20
2022-10-04T11:10:26.758Z,25.30
2022-10-04T11:13:26.072Z,25.50
2022-10-04T11:16:38.390Z,25.60
2022-10-04T11:19:55.923Z,25.80
2022-10-04T11:22:49.953Z,26.00
2022-10-04T11:25:56.728Z,26.20
2022-10-04T11:28:56.830Z,26.40
2022-10-04T11:32:03.315Z,26.50
2022-10-04T11:35:02.546Z,26.60
2022-10-04T11:38:02.567Z,26.70
2022-10-04T11:41:04.639Z,26.80
2022-10-04T11:43:58.177Z,26.90
2022-10-04T11:46:44.087Z,27.10
2022-10-04T11:49:48.249Z,27.20
2022-10-04T11:53:04.112Z,27.30
2022-10-04T11:55:58.520Z,27.40
2022-10-04T11:59:03.376Z,27.60
2022-10-04T12:01:55.225Z,27.80
2022-10-04T12:04:57.441Z,28.00
2022-10-04T12:07:38.107Z,28.10
2022-10-04T12:10:17.079Z,28.20
2022-10-04T12:12:53.041Z,28.30
2022-10-04T12:15:30.442Z,28.40
2022-10-04T12:18:55.793Z,28.50
2022-10-04T12:22:04.068Z,28.60
2022-10-04T12:25:12.770Z,28.60
2022-10-04T12:28:13.241Z,28.70
2022-10-04T12:30:46.922Z,28.70
2022-10-04T12:33:54.275Z,28.70
2022-10-04T12:36:41.666Z,28.70
2022-10-04T12:39:43.071Z,28.80
2022-10-04T12:42:35.454Z,28.80
2022-10-04T12:45:46.450Z,28.90
2022-10-04T12:48:35.169Z,28.90
2022-10-04T12:51:26.021Z,28.90
2022-10-04T12:54:42.794Z,28.80
2022-10-04T12:57:33.212Z,28.80
2022-10-04T13:00:25.720Z,28.70
2022-10-04T13:03:34.375Z,28.70
2022-10-04T13:06:08.053Z,28.80
2022-10-04T13:08:49.819Z,28.90
2022-10-04T13:11:31.789Z,29.10
2022-10-04T13:14:50.204Z,29.20
2022-10-04T13:17:37.487Z,29.30
2022-10-04T13:20:37.917Z,29.50
2022-10-04T13:23:28.364Z,29.50
2022-10-04T13:26:21.549Z,29.60
2022-10-04T13:29:04.515Z,29.60
2022-10-04T13:32:24.323Z,29.60
2022-10-04T13:35:18.754Z,29.60
2022-10-04T13:38:26.372Z,29.60
2022-10-04T13:41:18.107Z,29.60
2022-10-04T13:44:18.108Z,29.60
2022-10-04T13:47:20.979Z,29.60
2022-10-04T13:50:26.093Z,29.60
2022-10-04T13:54:02.658Z,29.60
2022-10-04T13:57:05.983Z,29.60
2022-10-04T14:00:01.647Z,29.60
2022-10-04T14:02:55.433Z,29.60
2022-10-04T14:05:32.329Z,29.60
2022-10-04T14:08:31.540Z,29.50
2022-10-04T14:11:46.891Z,29.40
2022-10-04T14:14:45.371Z,29.30
2022-10-04T14:18:01.348Z,29.30
2022-10-04T14:21:05.909Z,29.40
2022-10-04T14:23:43.401Z,29.50
2022-10-04T14:26:38.851Z,29.60
2022-10-04T14:29:59.291Z,29.60
2022-10-04T14:32:52.249Z,29.70
2022-10-04T14:35:35.434Z,29.80
2022-10-04T14:38:47.739Z,29.80
2022-10-04T14:41:49.488Z,29.60
2022-10-04T14:45:08.921Z,29.50
2022-10-04T14:48:24.475Z,29.30
2022-10-04T14:51:26.592Z,29.20
2022-10-04T14:54:11.600Z,28.90
2022-10-04T14:56:59.248Z,28.70
2022-10-04T15:00:21.525Z,28.40
2022-10-04T15:03:28.973Z,28.10
2022-10-04T15:06:06.560Z,27.80
2022-10-04T15:09:28.555Z,27.50
2022-10-04T15:15:46.848Z,27.00
2022-10-04T15:18:31.082Z,27.00
2022-10-04T15:21:39.214Z,27.00
2022-10-04T15:24:29.418Z,26.90
2022-10-04T15:27:33.057Z,26.70
2022-10-04T15:30:30.935Z,26.60
2022-10-04T15:33:44.093Z,26.40
2022-10-04T15:36:39.795Z,26.20
2022-10-04T15:39:48.284Z,26.00
2022-10-04T15:42:33.360Z,25.80
2022-10-04T15:45:37.921Z,25.60
2022-10-04T15:48:39.901Z,25.40
2022-10-04T15:51:53.876Z,25.20
2022-10-04T15:54:47.770Z,24.90
2022-10-04T15:57:27.910Z,24.70
2022-10-04T16:00:25.016Z,24.50
2022-10-04T16:03:31.867Z,24.40
2022-10-04T16:06:22.249Z,24.20
2022-10-04T16:09:24.870Z,24.00
2022-10-04T16:12:08.600Z,23.80
2022-10-04T16:15:16.009Z,23.60
2022-10-04T16:17:58.930Z,23.50
2022-10-04T16:20:52.351Z,23.30
2022-10-04T16:23:34.893Z,23.10
2022-10-04T16:26:05.964Z,23.00
2022-10-04T16:29:08.534Z,22.90
2022-10-04T16:31:57.642Z,22.70
2022-10-04T16:34:48.170Z,22.50
2022-10-04T16:37:46.599Z,22.30
2022-10-04T16:40:13.571Z,22.20
2022-10-04T16:43:09.701Z,22.10
2022-10-04T16:46:18.464Z,21.90
2022-10-04T16:49:23.452Z,21.80
2022-10-04T16:52:12.393Z,21.70
2022-10-04T16:55:04.425Z,21.50
2022-10-04T16:57:31.546Z,21.40
2022-10-04T17:00:20.718Z,21.20
2022-10-04T17:03:20.512Z,21.10
2022-10-04T17:06:15.733Z,21.00
2022-10-04T17:09:17.678Z,20.80
2022-10-04T17:12:16.455Z,20.70
2022-10-04T17:14:50.944Z,20.60
2022-10-04T17:18:05.254Z,20.40
2022-10-04T17:20:41.499Z,20.40
2022-10-04T17:23:36.862Z,20.20
2022-10-04T17:26:21.128Z,20.10
2022-10-04T17:29:01.057Z,19.90
2022-10-04T17:31:57.027Z,19.80
2022-10-04T17:34:27.486Z,19.60
2022-10-04T17:36:59.935Z,19.50
2022-10-04T17:39:39.824Z,19.30
2022-10-04T17:42:36.295Z,19.20
2022-10-04T17:46:09.018Z,19.10
2022-10-04T17:49:22.811Z,18.90
2022-10-04T17:52:14.217Z,18.70
2022-10-04T17:55:14.150Z,18.60
2022-10-04T17:58:12.821Z,18.40
2022-10-04T18:01:09.537Z,18.30
2022-10-04T18:03:44.776Z,18.10
2022-10-04T18:06:39.790Z,18.00
2022-10-04T18:09:26.107Z,18.00
2022-10-04T18:12:00.945Z,17.80
2022-10-04T18:14:31.063Z,17.70
2022-10-04T18:17:09.057Z,17.70
2022-10-04T18:20:03.069Z,17.60
2022-10-04T18:22:48.060Z,17.50
2022-10-04T18:25:26.850Z,17.40
2022-10-04T18:28:20.881Z,17.40
2022-10-04T18:30:53.993Z,17.30
2022-10-04T18:33:32.227Z,17.30
2022-10-04T18:36:46.373Z,17.20
2022-10-04T18:39:14.268Z,17.20
2022-10-04T18:41:56.827Z,17.10
2022-10-04T18:44:47.013Z,17.10
2022-10-04T18:47:31.760Z,17.10
2022-10-04T18:50:06.325Z,17.10
2022-10-04T18:53:02.981Z,17.00
2022-10-04T18:55:59.019Z,17.10
2022-10-04T18:59:45.657Z,17.10
2022-10-04T19:02:51.813Z,17.10
2022-10-04T19:05:36.731Z,17.10
2022-10-04T19:08:36.833Z,17.10
2022-10-04T19:11:16.207Z,17.10
2022-10-04T19:14:06.053Z,17.20
2022-10-04T19:17:37.942Z,17.20
2022-10-04T19:20:28.248Z,17.20
2022-10-04T19:23:19.999Z,17.20
2022-10-04T19:26:31.694Z,17.20
2022-10-04T19:29:41.561Z,17.10
2022-10-04T19:32:19.774Z,17.10
2022-10-04T19:35:32.821Z,17.10
2022-10-04T19:38:29.524Z,17.00
2022-10-04T19:41:14.987Z,17.00
2022-10-04T19:44:23.354Z,16.90
2022-10-04T19:47:05.966Z,16.90
2022-10-04T19:49:48.051Z,16.80
2022-10-04T19:52:30.484Z,16.80
2022-10-04T19:55:21.787Z,16.70
2022-10-04T19:58:14.322Z,16.60
2022-10-04T20:00:41.507Z,16.60
2022-10-04T20:03:13.420Z,16.50
2022-10-04T20:05:53.739Z,16.50
2022-10-04T20:09:02.834Z,16.40
2022-10-04T20:11:48.833Z,16.40
2022-10-04T20:14:16.241Z,16.40
2022-10-04T20:16:50.405Z,16.30
2022-10-04T20:19:33.039Z,16.30
2022-10-04T20:22:28.761Z,16.20
2022-10-04T20:24:57.940Z,16.20
2022-10-04T20:27:34.856Z,16.10
2022-10-04T20:30:05.295Z,16.10
2022-10-04T20:32:36.847Z,16.10
2022-10-04T20:35:54.600Z,16.00
2022-10-04T20:39:00.363Z,16.00
2022-10-04T20:41:50.392Z,16.00
2022-10-04T20:44:56.276Z,16.00
2022-10-04T20:47:35.066Z,16.00
2022-10-04T20:50:06.813Z,16.00
2022-10-04T20:52:36.931Z,16.00
2022-10-04T20:55:22.077Z,15.90
2022-10-04T20:57:49.238Z,16.00
2022-10-04T21:00:23.193Z,16.00
2022-10-04T21:03:08.106Z,16.00
2022-10-04T21:05:35.703Z,16.00
2022-10-04T21:08:22.795Z,16.00
2022-10-04T21:11:20.992Z,16.00
2022-10-04T21:14:01.050Z,16.00
2022-10-04T21:16:40.281Z,15.90
2022-10-04T21:19:29.399Z,15.90
2022-10-04T21:22:01.842Z,16.00
2022-10-04T21:24:42.161Z,15.90
2022-10-04T21:27:12.972Z,15.90
2022-10-04T21:29:40.764Z,15.90
2022-10-04T21:32:08.000Z,15.90
2022-10-04T21:34:52.435Z,15.90
2022-10-04T21:37:21.469Z,15.90
2022-10-04T21:39:49.028Z,15.90
2022-10-04T21:42:16.511Z,15.90
2022-10-04T21:44:43.948Z,15.90
2022-10-04T21:47:11.648Z,15.80
2022-10-04T21:49:38.888Z,15.80
2022-10-04T21:52:06.522Z,15.80
2022-10-04T21:54:34.293Z,15.80
2022-10-04T21:57:01.732Z,15.70
2022-10-04T21:59:28.777Z,15.70
2022-10-04T22:01:55.849Z,15.70
2022-10-04T22:04:22.922Z,15.70
2022-10-04T22:06:50.078Z,15.70
2022-10-04T22:09:17.196Z,15.70
2022-10-04T22:11:44.347Z,15.60
2022-10-04T22:14:11.345Z,15.60
2022-10-04T22:16:38.446Z,15.60
2022-10-04T22:19:05.725Z,15.60
2022-10-04T22:21:32.851Z,15.60
2022-10-04T22:24:02.892Z,15.60
2022-10-04T22:26:31.604Z,15.70
2022-10-04T22:29:00.998Z,15.70
2022-10-04T22:31:30.209Z,15.70
2022-10-04T22:33:57.626Z,15.80
2022-10-04T22:36:37.742Z,15.90
2022-10-04T22:39:17.429Z,15.90
2022-10-04T22:41:49.106Z,16.00
2022-10-04T22:44:22.482Z,16.00
2022-10-04T22:46:54.264Z,16.00
2022-10-04T22:49:35.404Z,16.10
2022-10-04T22:52:11.144Z,16.20
2022-10-04T22:54:42.132Z,16.20
2022-10-04T22:57:14.271Z,16.20
2022-10-04T22:59:52.844Z,16.30
2022-10-04T23:02:29.566Z,16.30
2022-10-04T23:05:09.776Z,16.40
2022-10-04T23:07:38.508Z,16.40
2022-10-04T23:10:06.953Z,16.50
2022-10-04T23:12:34.157Z,16.50
2022-10-04T23:15:03.362Z,16.50
2022-10-04T23:17:36.807Z,16.60
2022-10-04T23:20:13.817Z,16.60
2022-10-04T23:22:45.805Z,16.60
2022-10-04T23:25:20.833Z,16.60
2022-10-04T23:27:48.485Z,16.70
2022-10-04T23:30:22.073Z,16.70
2022-10-04T23:32:53.125Z,16.70
2022-10-04T23:35:28.011Z,16.70
2022-10-04T23:37:55.669Z,16.70
2022-10-04T23:40:25.965Z,16.80
2022-10-04T23:42:56.755Z,16.80
2022-10-04T23:45:26.379Z,16.80
2022-10-04T23:48:01.440Z,16.80
2022-10-04T23:50:38.655Z,16.80
2022-10-04T23:53:16.119Z,16.80
2022-10-04T23:55:45.730Z,16.80
2022-10-04T23:58:16.236Z,16.80
